<?xml version="1.0" encoding="UTF-8" standalone="no" ?>
<gpx xmlns="http://www.topografix.com/GPX/1/1" xmlns:xsi="http://www.w3.org/2001/XMLSchema-instance" xsi:schemaLocation="http://www.topografix.com/GPX/1/1 http://www.topografix.com/GPX/1/1/gpx.xsd" version="1.1" creator="VisuGPX - https://www.visugpx.com">
  <metadata>
    <name>valady FAIT 38km</name>
    <desc><![CDATA[quelques portages superbes points de vue]]></desc>
  </metadata>
  <trk>
    <name><![CDATA[--valady-FAIT 38km]]></name>
    <extensions>
      <line xmlns="http://www.topografix.com/GPX/gpx_style/0/2">
        <color>0000FF</color>
        <width>5</width>
      </line>
    </extensions>
    <trkseg>
      <trkpt lat="44.44676" lon="2.44123">
        <ele>490.9</ele>
        <time>2022-07-17T06:03:34.000Z</time>
      </trkpt>
      <trkpt lat="44.44696" lon="2.44121">
        <ele>490.4</ele>
        <time>2022-07-17T06:03:53.000Z</time>
      </trkpt>
      <trkpt lat="44.44793" lon="2.44062">
        <ele>491.6</ele>
        <time>2022-07-17T06:04:27.000Z</time>
      </trkpt>
      <trkpt lat="44.44884" lon="2.43996">
        <ele>491.3</ele>
        <time>2022-07-17T06:05:02.000Z</time>
      </trkpt>
      <trkpt lat="44.44973" lon="2.43919">
        <ele>490.7</ele>
        <time>2022-07-17T06:05:32.000Z</time>
      </trkpt>
      <trkpt lat="44.45085" lon="2.43891">
        <ele>494</ele>
        <time>2022-07-17T06:06:11.000Z</time>
      </trkpt>
      <trkpt lat="44.45178" lon="2.4385">
        <ele>501.9</ele>
        <time>2022-07-17T06:06:51.000Z</time>
      </trkpt>
      <trkpt lat="44.45265" lon="2.4377">
        <ele>506.9</ele>
        <time>2022-07-17T06:07:31.000Z</time>
      </trkpt>
      <trkpt lat="44.45363" lon="2.4368">
        <ele>512.2</ele>
        <time>2022-07-17T06:08:15.000Z</time>
      </trkpt>
      <trkpt lat="44.45438" lon="2.43571">
        <ele>509.6</ele>
        <time>2022-07-17T06:08:39.000Z</time>
      </trkpt>
      <trkpt lat="44.45565" lon="2.43478">
        <ele>503.4</ele>
        <time>2022-07-17T06:08:59.000Z</time>
      </trkpt>
      <trkpt lat="44.45697" lon="2.43482">
        <ele>494</ele>
        <time>2022-07-17T06:09:14.000Z</time>
      </trkpt>
      <trkpt lat="44.45805" lon="2.43557">
        <ele>482</ele>
        <time>2022-07-17T06:09:35.000Z</time>
      </trkpt>
      <trkpt lat="44.4571" lon="2.43662">
        <ele>471.6</ele>
        <time>2022-07-17T06:09:58.000Z</time>
      </trkpt>
      <trkpt lat="44.45752" lon="2.43827">
        <ele>467.2</ele>
        <time>2022-07-17T06:10:25.000Z</time>
      </trkpt>
      <trkpt lat="44.45767" lon="2.43981">
        <ele>458.3</ele>
        <time>2022-07-17T06:10:47.000Z</time>
      </trkpt>
      <trkpt lat="44.45848" lon="2.44091">
        <ele>464.7</ele>
        <time>2022-07-17T06:11:27.000Z</time>
      </trkpt>
      <trkpt lat="44.45892" lon="2.44156">
        <ele>463.1</ele>
      </trkpt>
      <trkpt lat="44.45961" lon="2.44183">
        <ele>452.8</ele>
        <time>2022-07-17T06:11:59.000Z</time>
      </trkpt>
      <trkpt lat="44.45996" lon="2.44278">
        <ele>452.2</ele>
      </trkpt>
      <trkpt lat="44.46037" lon="2.44302">
        <ele>460</ele>
        <time>2022-07-17T06:12:19.000Z</time>
      </trkpt>
      <trkpt lat="44.46066" lon="2.44314">
        <ele>444.6</ele>
      </trkpt>
      <trkpt lat="44.46085" lon="2.44346">
        <ele>460.3</ele>
        <time>2022-07-17T06:13:15.000Z</time>
      </trkpt>
      <trkpt lat="44.46192" lon="2.44384">
        <ele>461.6</ele>
        <time>2022-07-17T06:13:40.000Z</time>
      </trkpt>
      <trkpt lat="44.46268" lon="2.44408">
        <ele>445.9</ele>
      </trkpt>
      <trkpt lat="44.46317" lon="2.44453">
        <ele>458.1</ele>
        <time>2022-07-17T06:14:00.000Z</time>
      </trkpt>
      <trkpt lat="44.46348" lon="2.44523">
        <ele>454</ele>
      </trkpt>
      <trkpt lat="44.4639" lon="2.44579">
        <ele>461.8</ele>
        <time>2022-07-17T06:14:33.000Z</time>
      </trkpt>
      <trkpt lat="44.46406" lon="2.44649">
        <ele>451.9</ele>
      </trkpt>
      <trkpt lat="44.46409" lon="2.44769">
        <ele>455.6</ele>
        <time>2022-07-17T06:14:54.000Z</time>
      </trkpt>
      <trkpt lat="44.46453" lon="2.44968">
        <ele>443.8</ele>
        <time>2022-07-17T06:15:12.000Z</time>
      </trkpt>
      <trkpt lat="44.46466" lon="2.45041">
        <ele>428.5</ele>
      </trkpt>
      <trkpt lat="44.46506" lon="2.4512">
        <ele>437.9</ele>
        <time>2022-07-17T06:15:30.000Z</time>
      </trkpt>
      <trkpt lat="44.46552" lon="2.45173">
        <ele>423.5</ele>
      </trkpt>
      <trkpt lat="44.46577" lon="2.45245">
        <ele>434.7</ele>
        <time>2022-07-17T06:15:50.000Z</time>
      </trkpt>
      <trkpt lat="44.46634" lon="2.45385">
        <ele>435.2</ele>
        <time>2022-07-17T06:16:16.000Z</time>
      </trkpt>
      <trkpt lat="44.4669" lon="2.4552">
        <ele>440.7</ele>
        <time>2022-07-17T06:16:47.000Z</time>
      </trkpt>
      <trkpt lat="44.4678" lon="2.45584">
        <ele>448.5</ele>
        <time>2022-07-17T06:17:24.000Z</time>
      </trkpt>
      <trkpt lat="44.4689" lon="2.4563">
        <ele>444.7</ele>
        <time>2022-07-17T06:19:28.000Z</time>
      </trkpt>
      <trkpt lat="44.46922" lon="2.45663">
        <ele>430.5</ele>
      </trkpt>
      <trkpt lat="44.46874" lon="2.45741">
        <ele>437.9</ele>
        <time>2022-07-17T06:19:52.000Z</time>
      </trkpt>
      <trkpt lat="44.46785" lon="2.45857">
        <ele>436.6</ele>
        <time>2022-07-17T06:20:14.000Z</time>
      </trkpt>
      <trkpt lat="44.46701" lon="2.45952">
        <ele>432.9</ele>
        <time>2022-07-17T06:20:34.000Z</time>
      </trkpt>
      <trkpt lat="44.46628" lon="2.46074">
        <ele>427.1</ele>
        <time>2022-07-17T06:20:54.000Z</time>
      </trkpt>
      <trkpt lat="44.46568" lon="2.46082">
        <ele>415.2</ele>
      </trkpt>
      <trkpt lat="44.46509" lon="2.46071">
        <ele>417.3</ele>
        <time>2022-07-17T06:21:20.000Z</time>
      </trkpt>
      <trkpt lat="44.46477" lon="2.46015">
        <ele>409.6</ele>
      </trkpt>
      <trkpt lat="44.4642" lon="2.45976">
        <ele>416</ele>
        <time>2022-07-17T06:21:49.000Z</time>
      </trkpt>
      <trkpt lat="44.4638" lon="2.45966">
        <ele>415</ele>
      </trkpt>
      <trkpt lat="44.46336" lon="2.45917">
        <ele>420</ele>
        <time>2022-07-17T06:22:19.000Z</time>
      </trkpt>
      <trkpt lat="44.46253" lon="2.45822">
        <ele>423.9</ele>
        <time>2022-07-17T06:22:51.000Z</time>
      </trkpt>
      <trkpt lat="44.46217" lon="2.4576">
        <ele>412.7</ele>
      </trkpt>
      <trkpt lat="44.46201" lon="2.45743">
        <ele>410.6</ele>
      </trkpt>
      <trkpt lat="44.46165" lon="2.45742">
        <ele>418.1</ele>
        <time>2022-07-17T06:23:14.000Z</time>
      </trkpt>
      <trkpt lat="44.4615" lon="2.45802">
        <ele>411.9</ele>
      </trkpt>
      <trkpt lat="44.4614" lon="2.45877">
        <ele>415.3</ele>
        <time>2022-07-17T06:23:37.000Z</time>
      </trkpt>
      <trkpt lat="44.46151" lon="2.46052">
        <ele>406.8</ele>
        <time>2022-07-17T06:23:51.000Z</time>
      </trkpt>
      <trkpt lat="44.46167" lon="2.46245">
        <ele>390.8</ele>
        <time>2022-07-17T06:24:11.000Z</time>
      </trkpt>
      <trkpt lat="44.46168" lon="2.46319">
        <ele>379.6</ele>
      </trkpt>
      <trkpt lat="44.46152" lon="2.4641">
        <ele>376.2</ele>
        <time>2022-07-17T06:24:37.000Z</time>
      </trkpt>
      <trkpt lat="44.46242" lon="2.46475">
        <ele>353.5</ele>
        <time>2022-07-17T06:25:10.000Z</time>
      </trkpt>
      <trkpt lat="44.4628" lon="2.46416">
        <ele>339.1</ele>
      </trkpt>
      <trkpt lat="44.46318" lon="2.46523">
        <ele>330.4</ele>
        <time>2022-07-17T06:25:53.000Z</time>
      </trkpt>
      <trkpt lat="44.4634" lon="2.46662">
        <ele>308.8</ele>
        <time>2022-07-17T06:26:34.000Z</time>
      </trkpt>
      <trkpt lat="44.46376" lon="2.467">
        <ele>294.3</ele>
      </trkpt>
      <trkpt lat="44.46431" lon="2.46707">
        <ele>302.6</ele>
        <time>2022-07-17T06:27:00.000Z</time>
      </trkpt>
      <trkpt lat="44.4654" lon="2.46702">
        <ele>300.4</ele>
        <time>2022-07-17T06:27:21.000Z</time>
      </trkpt>
      <trkpt lat="44.46599" lon="2.46701">
        <ele>290.8</ele>
      </trkpt>
      <trkpt lat="44.46661" lon="2.46672">
        <ele>298.7</ele>
        <time>2022-07-17T06:27:44.000Z</time>
      </trkpt>
      <trkpt lat="44.46751" lon="2.46598">
        <ele>297.8</ele>
        <time>2022-07-17T06:28:05.000Z</time>
      </trkpt>
      <trkpt lat="44.46863" lon="2.46518">
        <ele>296.4</ele>
        <time>2022-07-17T06:28:27.000Z</time>
      </trkpt>
      <trkpt lat="44.46974" lon="2.46457">
        <ele>294.8</ele>
        <time>2022-07-17T06:28:50.000Z</time>
      </trkpt>
      <trkpt lat="44.47076" lon="2.4643">
        <ele>295.6</ele>
        <time>2022-07-17T06:29:11.000Z</time>
      </trkpt>
      <trkpt lat="44.47145" lon="2.46405">
        <ele>284.4</ele>
      </trkpt>
      <trkpt lat="44.47214" lon="2.46417">
        <ele>291.3</ele>
        <time>2022-07-17T06:29:38.000Z</time>
      </trkpt>
      <trkpt lat="44.47247" lon="2.46432">
        <ele>277.2</ele>
      </trkpt>
      <trkpt lat="44.47266" lon="2.4644">
        <ele>276.4</ele>
      </trkpt>
      <trkpt lat="44.47305" lon="2.46378">
        <ele>285</ele>
        <time>2022-07-17T06:30:09.000Z</time>
      </trkpt>
      <trkpt lat="44.4732" lon="2.46352">
        <ele>276</ele>
      </trkpt>
      <trkpt lat="44.47368" lon="2.46368">
        <ele>275.8</ele>
      </trkpt>
      <trkpt lat="44.47383" lon="2.46375">
        <ele>275.2</ele>
      </trkpt>
      <trkpt lat="44.47399" lon="2.46344">
        <ele>283.7</ele>
        <time>2022-07-17T06:30:38.000Z</time>
      </trkpt>
      <trkpt lat="44.47403" lon="2.46309">
        <ele>275</ele>
      </trkpt>
      <trkpt lat="44.47446" lon="2.46316">
        <ele>275.1</ele>
      </trkpt>
      <trkpt lat="44.47502" lon="2.46294">
        <ele>282.5</ele>
        <time>2022-07-17T06:31:19.000Z</time>
      </trkpt>
      <trkpt lat="44.47595" lon="2.46215">
        <ele>287.4</ele>
        <time>2022-07-17T06:31:50.000Z</time>
      </trkpt>
      <trkpt lat="44.47675" lon="2.46121">
        <ele>291.8</ele>
        <time>2022-07-17T06:32:20.000Z</time>
      </trkpt>
      <trkpt lat="44.47751" lon="2.46017">
        <ele>295.4</ele>
        <time>2022-07-17T06:32:53.000Z</time>
      </trkpt>
      <trkpt lat="44.4781" lon="2.45901">
        <ele>300.7</ele>
        <time>2022-07-17T06:33:27.000Z</time>
      </trkpt>
      <trkpt lat="44.47899" lon="2.45819">
        <ele>308.6</ele>
        <time>2022-07-17T06:34:07.000Z</time>
      </trkpt>
      <trkpt lat="44.48019" lon="2.45815">
        <ele>316.3</ele>
        <time>2022-07-17T06:34:51.000Z</time>
      </trkpt>
      <trkpt lat="44.48091" lon="2.45711">
        <ele>320.9</ele>
        <time>2022-07-17T06:35:28.000Z</time>
      </trkpt>
      <trkpt lat="44.48114" lon="2.45635">
        <ele>322.3</ele>
      </trkpt>
      <trkpt lat="44.48173" lon="2.45598">
        <ele>326.1</ele>
        <time>2022-07-17T06:36:13.000Z</time>
      </trkpt>
      <trkpt lat="44.4822" lon="2.45584">
        <ele>327</ele>
      </trkpt>
      <trkpt lat="44.48181" lon="2.45642">
        <ele>332.1</ele>
        <time>2022-07-17T06:36:53.000Z</time>
      </trkpt>
      <trkpt lat="44.48157" lon="2.45694">
        <ele>333.6</ele>
      </trkpt>
      <trkpt lat="44.48181" lon="2.45778">
        <ele>338.8</ele>
        <time>2022-07-17T06:37:33.000Z</time>
      </trkpt>
      <trkpt lat="44.48182" lon="2.45826">
        <ele>342</ele>
      </trkpt>
      <trkpt lat="44.48148" lon="2.45861">
        <ele>341.6</ele>
      </trkpt>
      <trkpt lat="44.48127" lon="2.45913">
        <ele>346.6</ele>
        <time>2022-07-17T06:38:14.000Z</time>
      </trkpt>
      <trkpt lat="44.48091" lon="2.45953">
        <ele>347.3</ele>
      </trkpt>
      <trkpt lat="44.48042" lon="2.45996">
        <ele>353.8</ele>
        <time>2022-07-17T06:38:54.000Z</time>
      </trkpt>
      <trkpt lat="44.47967" lon="2.46111">
        <ele>360.7</ele>
        <time>2022-07-17T06:39:34.000Z</time>
      </trkpt>
      <trkpt lat="44.4792" lon="2.46263">
        <ele>364.3</ele>
        <time>2022-07-17T06:40:17.000Z</time>
      </trkpt>
      <trkpt lat="44.47941" lon="2.46393">
        <ele>370.7</ele>
        <time>2022-07-17T06:40:58.000Z</time>
      </trkpt>
      <trkpt lat="44.48011" lon="2.46517">
        <ele>377.4</ele>
        <time>2022-07-17T06:41:42.000Z</time>
      </trkpt>
      <trkpt lat="44.48008" lon="2.4658">
        <ele>384.7</ele>
      </trkpt>
      <trkpt lat="44.47967" lon="2.46625">
        <ele>383.3</ele>
        <time>2022-07-17T06:42:15.000Z</time>
      </trkpt>
      <trkpt lat="44.47926" lon="2.46657">
        <ele>389.2</ele>
      </trkpt>
      <trkpt lat="44.47874" lon="2.46676">
        <ele>389.6</ele>
        <time>2022-07-17T06:42:50.000Z</time>
      </trkpt>
      <trkpt lat="44.47827" lon="2.46691">
        <ele>388.9</ele>
      </trkpt>
      <trkpt lat="44.47776" lon="2.46749">
        <ele>388.1</ele>
        <time>2022-07-17T06:43:26.000Z</time>
      </trkpt>
      <trkpt lat="44.47751" lon="2.46813">
        <ele>388</ele>
      </trkpt>
      <trkpt lat="44.47742" lon="2.46891">
        <ele>387.1</ele>
        <time>2022-07-17T06:43:56.000Z</time>
      </trkpt>
      <trkpt lat="44.47756" lon="2.46936">
        <ele>386.4</ele>
      </trkpt>
      <trkpt lat="44.47798" lon="2.46958">
        <ele>384.6</ele>
        <time>2022-07-17T06:45:20.000Z</time>
      </trkpt>
      <trkpt lat="44.47916" lon="2.47023">
        <ele>388.5</ele>
        <time>2022-07-17T06:45:53.000Z</time>
      </trkpt>
      <trkpt lat="44.48005" lon="2.47078">
        <ele>395.4</ele>
        <time>2022-07-17T06:46:23.000Z</time>
      </trkpt>
      <trkpt lat="44.48062" lon="2.47124">
        <ele>407.8</ele>
      </trkpt>
      <trkpt lat="44.48065" lon="2.47171">
        <ele>402.8</ele>
        <time>2022-07-17T06:46:56.000Z</time>
      </trkpt>
      <trkpt lat="44.48039" lon="2.47205">
        <ele>410.2</ele>
      </trkpt>
      <trkpt lat="44.48025" lon="2.47236">
        <ele>408.8</ele>
      </trkpt>
      <trkpt lat="44.48054" lon="2.47275">
        <ele>409</ele>
        <time>2022-07-17T06:47:46.000Z</time>
      </trkpt>
      <trkpt lat="44.48073" lon="2.47336">
        <ele>421.2</ele>
      </trkpt>
      <trkpt lat="44.48099" lon="2.47358">
        <ele>419.5</ele>
        <time>2022-07-17T06:48:49.000Z</time>
      </trkpt>
      <trkpt lat="44.48135" lon="2.47405">
        <ele>434.4</ele>
      </trkpt>
      <trkpt lat="44.48186" lon="2.47443">
        <ele>431.5</ele>
        <time>2022-07-17T06:50:02.000Z</time>
      </trkpt>
      <trkpt lat="44.48277" lon="2.47476">
        <ele>440.5</ele>
        <time>2022-07-17T06:50:59.000Z</time>
      </trkpt>
      <trkpt lat="44.48327" lon="2.47512">
        <ele>461</ele>
      </trkpt>
      <trkpt lat="44.48349" lon="2.47556">
        <ele>454.6</ele>
        <time>2022-07-17T06:52:03.000Z</time>
      </trkpt>
      <trkpt lat="44.48346" lon="2.47601">
        <ele>469.6</ele>
      </trkpt>
      <trkpt lat="44.48388" lon="2.47613">
        <ele>476.9</ele>
      </trkpt>
      <trkpt lat="44.48421" lon="2.47614">
        <ele>470.7</ele>
        <time>2022-07-17T06:53:04.000Z</time>
      </trkpt>
      <trkpt lat="44.48517" lon="2.47618">
        <ele>477.5</ele>
        <time>2022-07-17T06:53:47.000Z</time>
      </trkpt>
      <trkpt lat="44.48536" lon="2.47621">
        <ele>487.7</ele>
      </trkpt>
      <trkpt lat="44.48579" lon="2.47725">
        <ele>481.3</ele>
        <time>2022-07-17T06:54:20.000Z</time>
      </trkpt>
      <trkpt lat="44.48597" lon="2.47809">
        <ele>492.8</ele>
      </trkpt>
      <trkpt lat="44.48622" lon="2.47876">
        <ele>487.8</ele>
        <time>2022-07-17T06:54:51.000Z</time>
      </trkpt>
      <trkpt lat="44.48686" lon="2.48009">
        <ele>489.4</ele>
        <time>2022-07-17T06:55:17.000Z</time>
      </trkpt>
      <trkpt lat="44.48724" lon="2.48061">
        <ele>495.9</ele>
      </trkpt>
      <trkpt lat="44.48758" lon="2.48131">
        <ele>490.3</ele>
        <time>2022-07-17T06:55:43.000Z</time>
      </trkpt>
      <trkpt lat="44.48783" lon="2.48186">
        <ele>496.8</ele>
      </trkpt>
      <trkpt lat="44.48795" lon="2.48206">
        <ele>496.9</ele>
      </trkpt>
      <trkpt lat="44.48789" lon="2.48214">
        <ele>489.7</ele>
        <time>2022-07-17T06:56:44.000Z</time>
      </trkpt>
      <trkpt lat="44.48746" lon="2.48258">
        <ele>492.8</ele>
      </trkpt>
      <trkpt lat="44.48736" lon="2.48269">
        <ele>489.5</ele>
      </trkpt>
      <trkpt lat="44.48689" lon="2.48234">
        <ele>482.1</ele>
        <time>2022-07-17T06:57:09.000Z</time>
      </trkpt>
      <trkpt lat="44.48644" lon="2.48233">
        <ele>476.5</ele>
      </trkpt>
      <trkpt lat="44.48609" lon="2.4826">
        <ele>470</ele>
        <time>2022-07-17T06:57:49.000Z</time>
      </trkpt>
      <trkpt lat="44.48571" lon="2.483">
        <ele>458.7</ele>
      </trkpt>
      <trkpt lat="44.4852" lon="2.48422">
        <ele>438.5</ele>
        <time>2022-07-17T06:58:06.000Z</time>
      </trkpt>
      <trkpt lat="44.48576" lon="2.48383">
        <ele>428.6</ele>
      </trkpt>
      <trkpt lat="44.48616" lon="2.4837">
        <ele>428.1</ele>
        <time>2022-07-17T06:58:31.000Z</time>
      </trkpt>
      <trkpt lat="44.48573" lon="2.4849">
        <ele>405.8</ele>
        <time>2022-07-17T06:58:54.000Z</time>
      </trkpt>
      <trkpt lat="44.48542" lon="2.48555">
        <ele>387.7</ele>
      </trkpt>
      <trkpt lat="44.48582" lon="2.4854">
        <ele>383</ele>
      </trkpt>
      <trkpt lat="44.48592" lon="2.48558">
        <ele>378.7</ele>
        <time>2022-07-17T06:59:24.000Z</time>
      </trkpt>
      <trkpt lat="44.48592" lon="2.48587">
        <ele>378.3</ele>
      </trkpt>
      <trkpt lat="44.48574" lon="2.48613">
        <ele>373.2</ele>
      </trkpt>
      <trkpt lat="44.48527" lon="2.487">
        <ele>357.4</ele>
        <time>2022-07-17T06:59:50.000Z</time>
      </trkpt>
      <trkpt lat="44.48512" lon="2.48749">
        <ele>346.4</ele>
      </trkpt>
      <trkpt lat="44.48502" lon="2.48761">
        <ele>343.6</ele>
      </trkpt>
      <trkpt lat="44.48431" lon="2.48748">
        <ele>343.4</ele>
        <time>2022-07-17T07:00:11.000Z</time>
      </trkpt>
      <trkpt lat="44.48298" lon="2.48684">
        <ele>338.9</ele>
        <time>2022-07-17T07:00:31.000Z</time>
      </trkpt>
      <trkpt lat="44.48163" lon="2.48617">
        <ele>335.4</ele>
        <time>2022-07-17T07:00:53.000Z</time>
      </trkpt>
      <trkpt lat="44.48019" lon="2.48654">
        <ele>329</ele>
        <time>2022-07-17T07:01:11.000Z</time>
      </trkpt>
      <trkpt lat="44.47906" lon="2.487">
        <ele>321.4</ele>
        <time>2022-07-17T07:01:22.000Z</time>
      </trkpt>
      <trkpt lat="44.47811" lon="2.48705">
        <ele>316.5</ele>
        <time>2022-07-17T07:01:32.000Z</time>
      </trkpt>
      <trkpt lat="44.47722" lon="2.48663">
        <ele>312.1</ele>
        <time>2022-07-17T07:01:42.000Z</time>
      </trkpt>
      <trkpt lat="44.47705" lon="2.48642">
        <ele>308</ele>
      </trkpt>
      <trkpt lat="44.47698" lon="2.48761">
        <ele>308.3</ele>
        <time>2022-07-17T07:02:08.000Z</time>
      </trkpt>
      <trkpt lat="44.47686" lon="2.48903">
        <ele>307.9</ele>
        <time>2022-07-17T07:02:28.000Z</time>
      </trkpt>
      <trkpt lat="44.47691" lon="2.4906">
        <ele>310.7</ele>
        <time>2022-07-17T07:02:56.000Z</time>
      </trkpt>
      <trkpt lat="44.47627" lon="2.49175">
        <ele>319.2</ele>
        <time>2022-07-17T07:03:42.000Z</time>
      </trkpt>
      <trkpt lat="44.47586" lon="2.49309">
        <ele>319.6</ele>
        <time>2022-07-17T07:04:14.000Z</time>
      </trkpt>
      <trkpt lat="44.47562" lon="2.49476">
        <ele>327</ele>
        <time>2022-07-17T07:05:01.000Z</time>
      </trkpt>
      <trkpt lat="44.47542" lon="2.49605">
        <ele>333.5</ele>
        <time>2022-07-17T07:05:43.000Z</time>
      </trkpt>
      <trkpt lat="44.475" lon="2.49729">
        <ele>336.5</ele>
        <time>2022-07-17T07:06:15.000Z</time>
      </trkpt>
      <trkpt lat="44.47454" lon="2.49872">
        <ele>342.4</ele>
        <time>2022-07-17T07:06:55.000Z</time>
      </trkpt>
      <trkpt lat="44.47457" lon="2.50005">
        <ele>353</ele>
        <time>2022-07-17T07:07:51.000Z</time>
      </trkpt>
      <trkpt lat="44.47487" lon="2.50126">
        <ele>367.7</ele>
        <time>2022-07-17T07:09:02.000Z</time>
      </trkpt>
      <trkpt lat="44.47508" lon="2.50215">
        <ele>382.9</ele>
        <time>2022-07-17T07:10:25.000Z</time>
      </trkpt>
      <trkpt lat="44.47507" lon="2.50273">
        <ele>393.3</ele>
      </trkpt>
      <trkpt lat="44.47484" lon="2.50321">
        <ele>393.7</ele>
        <time>2022-07-17T07:11:41.000Z</time>
      </trkpt>
      <trkpt lat="44.47416" lon="2.50417">
        <ele>401.4</ele>
        <time>2022-07-17T07:12:43.000Z</time>
      </trkpt>
      <trkpt lat="44.47393" lon="2.50451">
        <ele>415</ele>
      </trkpt>
      <trkpt lat="44.47373" lon="2.50498">
        <ele>423.1</ele>
      </trkpt>
      <trkpt lat="44.47389" lon="2.50535">
        <ele>419.3</ele>
        <time>2022-07-17T07:14:04.000Z</time>
      </trkpt>
      <trkpt lat="44.47459" lon="2.50591">
        <ele>435.4</ele>
        <time>2022-07-17T07:15:23.000Z</time>
      </trkpt>
      <trkpt lat="44.47531" lon="2.5065">
        <ele>450.1</ele>
        <time>2022-07-17T07:16:43.000Z</time>
      </trkpt>
      <trkpt lat="44.47582" lon="2.5062">
        <ele>462.8</ele>
      </trkpt>
      <trkpt lat="44.47617" lon="2.50626">
        <ele>460.5</ele>
        <time>2022-07-17T07:17:51.000Z</time>
      </trkpt>
      <trkpt lat="44.47703" lon="2.50681">
        <ele>475.5</ele>
        <time>2022-07-17T07:19:14.000Z</time>
      </trkpt>
      <trkpt lat="44.47732" lon="2.50751">
        <ele>490.3</ele>
        <time>2022-07-17T07:20:43.000Z</time>
      </trkpt>
      <trkpt lat="44.47726" lon="2.50807">
        <ele>502</ele>
      </trkpt>
      <trkpt lat="44.47737" lon="2.50883">
        <ele>495.2</ele>
        <time>2022-07-17T07:21:35.000Z</time>
      </trkpt>
      <trkpt lat="44.47731" lon="2.50924">
        <ele>508.6</ele>
      </trkpt>
      <trkpt lat="44.47683" lon="2.50982">
        <ele>504.3</ele>
        <time>2022-07-17T07:22:26.000Z</time>
      </trkpt>
      <trkpt lat="44.47599" lon="2.51066">
        <ele>514.1</ele>
        <time>2022-07-17T07:23:31.000Z</time>
      </trkpt>
      <trkpt lat="44.47507" lon="2.51124">
        <ele>516.9</ele>
        <time>2022-07-17T07:24:12.000Z</time>
      </trkpt>
      <trkpt lat="44.47405" lon="2.51175">
        <ele>520.4</ele>
        <time>2022-07-17T07:24:48.000Z</time>
      </trkpt>
      <trkpt lat="44.47295" lon="2.51238">
        <ele>527.3</ele>
        <time>2022-07-17T07:25:29.000Z</time>
      </trkpt>
      <trkpt lat="44.4719" lon="2.51266">
        <ele>529.5</ele>
        <time>2022-07-17T07:26:04.000Z</time>
      </trkpt>
      <trkpt lat="44.47097" lon="2.51351">
        <ele>533.8</ele>
        <time>2022-07-17T07:27:32.000Z</time>
      </trkpt>
      <trkpt lat="44.47008" lon="2.51416">
        <ele>532.8</ele>
        <time>2022-07-17T07:27:52.000Z</time>
      </trkpt>
      <trkpt lat="44.46915" lon="2.51512">
        <ele>531.4</ele>
        <time>2022-07-17T07:28:12.000Z</time>
      </trkpt>
      <trkpt lat="44.46758" lon="2.51585">
        <ele>524.6</ele>
        <time>2022-07-17T07:28:34.000Z</time>
      </trkpt>
      <trkpt lat="44.4667" lon="2.51649">
        <ele>526.2</ele>
        <time>2022-07-17T07:28:55.000Z</time>
      </trkpt>
      <trkpt lat="44.46573" lon="2.517">
        <ele>527.8</ele>
        <time>2022-07-17T07:29:15.000Z</time>
      </trkpt>
      <trkpt lat="44.46533" lon="2.51695">
        <ele>542.3</ele>
      </trkpt>
      <trkpt lat="44.46502" lon="2.51756">
        <ele>547.1</ele>
        <time>2022-07-17T07:29:51.000Z</time>
      </trkpt>
      <trkpt lat="44.46452" lon="2.51803">
        <ele>548.8</ele>
      </trkpt>
      <trkpt lat="44.46412" lon="2.5187">
        <ele>543.2</ele>
        <time>2022-07-17T07:30:24.000Z</time>
      </trkpt>
      <trkpt lat="44.4634" lon="2.51961">
        <ele>543.8</ele>
        <time>2022-07-17T07:30:45.000Z</time>
      </trkpt>
      <trkpt lat="44.46285" lon="2.51954">
        <ele>551.6</ele>
      </trkpt>
      <trkpt lat="44.46229" lon="2.51933">
        <ele>541.9</ele>
        <time>2022-07-17T07:31:07.000Z</time>
      </trkpt>
      <trkpt lat="44.46126" lon="2.51897">
        <ele>542.3</ele>
        <time>2022-07-17T07:31:27.000Z</time>
      </trkpt>
      <trkpt lat="44.46082" lon="2.51851">
        <ele>555.4</ele>
      </trkpt>
      <trkpt lat="44.46038" lon="2.5177">
        <ele>547.1</ele>
        <time>2022-07-17T07:31:58.000Z</time>
      </trkpt>
      <trkpt lat="44.45961" lon="2.51662">
        <ele>545.2</ele>
        <time>2022-07-17T07:32:20.000Z</time>
      </trkpt>
      <trkpt lat="44.45882" lon="2.51554">
        <ele>549</ele>
        <time>2022-07-17T07:32:46.000Z</time>
      </trkpt>
      <trkpt lat="44.45829" lon="2.51401">
        <ele>553.2</ele>
        <time>2022-07-17T07:33:19.000Z</time>
      </trkpt>
      <trkpt lat="44.45806" lon="2.51249">
        <ele>558.2</ele>
        <time>2022-07-17T07:33:46.000Z</time>
      </trkpt>
      <trkpt lat="44.45754" lon="2.51104">
        <ele>559.7</ele>
        <time>2022-07-17T07:34:14.000Z</time>
      </trkpt>
      <trkpt lat="44.4567" lon="2.50919">
        <ele>551.1</ele>
        <time>2022-07-17T07:34:39.000Z</time>
      </trkpt>
      <trkpt lat="44.4561" lon="2.50777">
        <ele>546.7</ele>
        <time>2022-07-17T07:34:59.000Z</time>
      </trkpt>
      <trkpt lat="44.45577" lon="2.50688">
        <ele>556.5</ele>
      </trkpt>
      <trkpt lat="44.45541" lon="2.50696">
        <ele>546.2</ele>
        <time>2022-07-17T07:35:23.000Z</time>
      </trkpt>
      <trkpt lat="44.45399" lon="2.50739">
        <ele>538.3</ele>
        <time>2022-07-17T07:35:43.000Z</time>
      </trkpt>
      <trkpt lat="44.4529" lon="2.5073">
        <ele>540.7</ele>
        <time>2022-07-17T07:36:11.000Z</time>
      </trkpt>
      <trkpt lat="44.45217" lon="2.5073">
        <ele>558.2</ele>
      </trkpt>
      <trkpt lat="44.45196" lon="2.50679">
        <ele>549.8</ele>
        <time>2022-07-17T07:36:53.000Z</time>
      </trkpt>
      <trkpt lat="44.45162" lon="2.50627">
        <ele>561.7</ele>
      </trkpt>
      <trkpt lat="44.45168" lon="2.50548">
        <ele>552.5</ele>
        <time>2022-07-17T07:37:22.000Z</time>
      </trkpt>
      <trkpt lat="44.45168" lon="2.50356">
        <ele>548.8</ele>
        <time>2022-07-17T07:37:40.000Z</time>
      </trkpt>
      <trkpt lat="44.45157" lon="2.50248">
        <ele>541.7</ele>
        <time>2022-07-17T07:39:03.000Z</time>
      </trkpt>
      <trkpt lat="44.45139" lon="2.50279">
        <ele>538.3</ele>
        <time>2022-07-17T07:39:54.000Z</time>
      </trkpt>
      <trkpt lat="44.45113" lon="2.50424">
        <ele>530.5</ele>
        <time>2022-07-17T07:40:17.000Z</time>
      </trkpt>
      <trkpt lat="44.45063" lon="2.50278">
        <ele>506.7</ele>
        <time>2022-07-17T07:41:08.000Z</time>
      </trkpt>
      <trkpt lat="44.45092" lon="2.50205">
        <ele>490.7</ele>
      </trkpt>
      <trkpt lat="44.451" lon="2.50168">
        <ele>491.4</ele>
      </trkpt>
      <trkpt lat="44.45094" lon="2.50137">
        <ele>488.9</ele>
        <time>2022-07-17T07:41:35.000Z</time>
      </trkpt>
      <trkpt lat="44.45029" lon="2.50046">
        <ele>469.1</ele>
        <time>2022-07-17T07:42:48.000Z</time>
      </trkpt>
      <trkpt lat="44.44983" lon="2.50173">
        <ele>450.4</ele>
        <time>2022-07-17T07:43:33.000Z</time>
      </trkpt>
      <trkpt lat="44.44946" lon="2.50199">
        <ele>441.8</ele>
      </trkpt>
      <trkpt lat="44.44888" lon="2.50185">
        <ele>444.9</ele>
        <time>2022-07-17T07:43:58.000Z</time>
      </trkpt>
      <trkpt lat="44.44831" lon="2.50158">
        <ele>438.2</ele>
      </trkpt>
      <trkpt lat="44.44771" lon="2.5011">
        <ele>442.8</ele>
        <time>2022-07-17T07:44:18.000Z</time>
      </trkpt>
      <trkpt lat="44.44665" lon="2.50048">
        <ele>444.6</ele>
        <time>2022-07-17T07:44:40.000Z</time>
      </trkpt>
      <trkpt lat="44.44615" lon="2.49993">
        <ele>444.6</ele>
      </trkpt>
      <trkpt lat="44.44565" lon="2.49967">
        <ele>451.2</ele>
        <time>2022-07-17T07:45:09.000Z</time>
      </trkpt>
      <trkpt lat="44.44475" lon="2.50034">
        <ele>456.6</ele>
        <time>2022-07-17T07:45:39.000Z</time>
      </trkpt>
      <trkpt lat="44.44427" lon="2.50091">
        <ele>449.9</ele>
      </trkpt>
      <trkpt lat="44.44411" lon="2.50178">
        <ele>454</ele>
        <time>2022-07-17T07:46:03.000Z</time>
      </trkpt>
      <trkpt lat="44.44385" lon="2.50229">
        <ele>442.4</ele>
      </trkpt>
      <trkpt lat="44.44367" lon="2.50324">
        <ele>446.5</ele>
        <time>2022-07-17T07:46:17.000Z</time>
      </trkpt>
      <trkpt lat="44.44365" lon="2.50474">
        <ele>438</ele>
        <time>2022-07-17T07:46:28.000Z</time>
      </trkpt>
      <trkpt lat="44.44361" lon="2.50557">
        <ele>431</ele>
      </trkpt>
      <trkpt lat="44.44309" lon="2.5056">
        <ele>434.8</ele>
        <time>2022-07-17T07:46:54.000Z</time>
      </trkpt>
      <trkpt lat="44.44202" lon="2.50494">
        <ele>442.6</ele>
        <time>2022-07-17T07:47:25.000Z</time>
      </trkpt>
      <trkpt lat="44.44142" lon="2.50434">
        <ele>433.9</ele>
      </trkpt>
      <trkpt lat="44.44078" lon="2.50416">
        <ele>442</ele>
        <time>2022-07-17T07:47:47.000Z</time>
      </trkpt>
      <trkpt lat="44.44005" lon="2.50445">
        <ele>427.1</ele>
      </trkpt>
      <trkpt lat="44.4396" lon="2.50526">
        <ele>434.6</ele>
        <time>2022-07-17T07:48:06.000Z</time>
      </trkpt>
      <trkpt lat="44.43912" lon="2.50681">
        <ele>436.2</ele>
        <time>2022-07-17T07:48:33.000Z</time>
      </trkpt>
      <trkpt lat="44.43912" lon="2.50763">
        <ele>436.2</ele>
      </trkpt>
      <trkpt lat="44.43892" lon="2.50843">
        <ele>442</ele>
        <time>2022-07-17T07:49:09.000Z</time>
      </trkpt>
      <trkpt lat="44.43863" lon="2.50922">
        <ele>442.1</ele>
      </trkpt>
      <trkpt lat="44.43858" lon="2.5098">
        <ele>445.9</ele>
        <time>2022-07-17T07:49:42.000Z</time>
      </trkpt>
      <trkpt lat="44.43868" lon="2.51005">
        <ele>447</ele>
      </trkpt>
      <trkpt lat="44.43848" lon="2.51034">
        <ele>439.5</ele>
      </trkpt>
      <trkpt lat="44.43838" lon="2.51052">
        <ele>436.5</ele>
      </trkpt>
      <trkpt lat="44.43847" lon="2.51097">
        <ele>441.3</ele>
        <time>2022-07-17T07:50:07.000Z</time>
      </trkpt>
      <trkpt lat="44.43827" lon="2.51143">
        <ele>434.2</ele>
      </trkpt>
      <trkpt lat="44.4382" lon="2.51253">
        <ele>438.8</ele>
        <time>2022-07-17T07:50:33.000Z</time>
      </trkpt>
      <trkpt lat="44.43811" lon="2.51301">
        <ele>431.8</ele>
      </trkpt>
      <trkpt lat="44.4374" lon="2.51392">
        <ele>434</ele>
        <time>2022-07-17T07:50:53.000Z</time>
      </trkpt>
      <trkpt lat="44.43691" lon="2.51456">
        <ele>423.4</ele>
      </trkpt>
      <trkpt lat="44.43673" lon="2.51473">
        <ele>422.4</ele>
      </trkpt>
      <trkpt lat="44.43601" lon="2.51481">
        <ele>428.1</ele>
        <time>2022-07-17T07:51:15.000Z</time>
      </trkpt>
      <trkpt lat="44.43517" lon="2.51449">
        <ele>423.9</ele>
        <time>2022-07-17T07:51:50.000Z</time>
      </trkpt>
      <trkpt lat="44.43498" lon="2.51408">
        <ele>412.9</ele>
      </trkpt>
      <trkpt lat="44.43506" lon="2.51333">
        <ele>400</ele>
      </trkpt>
      <trkpt lat="44.43492" lon="2.51304">
        <ele>398</ele>
        <time>2022-07-17T07:52:12.000Z</time>
      </trkpt>
      <trkpt lat="44.43447" lon="2.51305">
        <ele>394.2</ele>
      </trkpt>
      <trkpt lat="44.43411" lon="2.51281">
        <ele>390.2</ele>
      </trkpt>
      <trkpt lat="44.43377" lon="2.51274">
        <ele>398.5</ele>
        <time>2022-07-17T07:52:37.000Z</time>
      </trkpt>
      <trkpt lat="44.43355" lon="2.51297">
        <ele>386.4</ele>
      </trkpt>
      <trkpt lat="44.4335" lon="2.51253">
        <ele>386.6</ele>
      </trkpt>
      <trkpt lat="44.43319" lon="2.51208">
        <ele>400</ele>
        <time>2022-07-17T07:53:18.000Z</time>
      </trkpt>
      <trkpt lat="44.43308" lon="2.51129">
        <ele>406.2</ele>
      </trkpt>
      <trkpt lat="44.43302" lon="2.51091">
        <ele>411.5</ele>
      </trkpt>
      <trkpt lat="44.43316" lon="2.51072">
        <ele>411.5</ele>
        <time>2022-07-17T07:54:18.000Z</time>
      </trkpt>
      <trkpt lat="44.43301" lon="2.51002">
        <ele>421.2</ele>
      </trkpt>
      <trkpt lat="44.43299" lon="2.50947">
        <ele>425.4</ele>
        <time>2022-07-17T07:55:31.000Z</time>
      </trkpt>
      <trkpt lat="44.43339" lon="2.50822">
        <ele>433.1</ele>
        <time>2022-07-17T07:56:16.000Z</time>
      </trkpt>
      <trkpt lat="44.43357" lon="2.50793">
        <ele>425.1</ele>
      </trkpt>
      <trkpt lat="44.43341" lon="2.5074">
        <ele>424.5</ele>
      </trkpt>
      <trkpt lat="44.43353" lon="2.50671">
        <ele>434.4</ele>
        <time>2022-07-17T07:56:44.000Z</time>
      </trkpt>
      <trkpt lat="44.43356" lon="2.50627">
        <ele>427.7</ele>
      </trkpt>
      <trkpt lat="44.43338" lon="2.50577">
        <ele>428.1</ele>
      </trkpt>
      <trkpt lat="44.4334" lon="2.50554">
        <ele>426.9</ele>
        <time>2022-07-17T07:57:10.000Z</time>
      </trkpt>
      <trkpt lat="44.43321" lon="2.50538">
        <ele>431</ele>
        <time>2022-07-17T07:57:34.000Z</time>
      </trkpt>
      <trkpt lat="44.43291" lon="2.50507">
        <ele>438.5</ele>
        <time>2022-07-17T07:58:11.000Z</time>
      </trkpt>
      <trkpt lat="44.43282" lon="2.5045">
        <ele>442.4</ele>
        <time>2022-07-17T07:58:49.000Z</time>
      </trkpt>
      <trkpt lat="44.43263" lon="2.50424">
        <ele>450.9</ele>
        <time>2022-07-17T07:59:26.000Z</time>
      </trkpt>
      <trkpt lat="44.43246" lon="2.50418">
        <ele>457.2</ele>
      </trkpt>
      <trkpt lat="44.4323" lon="2.50383">
        <ele>463.2</ele>
        <time>2022-07-17T08:00:19.000Z</time>
      </trkpt>
      <trkpt lat="44.43219" lon="2.50381">
        <ele>466.6</ele>
        <time>2022-07-17T08:01:32.000Z</time>
      </trkpt>
      <trkpt lat="44.43186" lon="2.50422">
        <ele>473.9</ele>
        <time>2022-07-17T08:02:45.000Z</time>
      </trkpt>
      <trkpt lat="44.4317" lon="2.50434">
        <ele>476.9</ele>
        <time>2022-07-17T08:04:43.000Z</time>
      </trkpt>
      <trkpt lat="44.43157" lon="2.50455">
        <ele>479.9</ele>
        <time>2022-07-17T08:06:03.000Z</time>
      </trkpt>
      <trkpt lat="44.43134" lon="2.50519">
        <ele>485.4</ele>
        <time>2022-07-17T08:07:42.000Z</time>
      </trkpt>
      <trkpt lat="44.43119" lon="2.50498">
        <ele>492.6</ele>
        <time>2022-07-17T08:08:41.000Z</time>
      </trkpt>
      <trkpt lat="44.43116" lon="2.5043">
        <ele>496.7</ele>
      </trkpt>
      <trkpt lat="44.43139" lon="2.5036">
        <ele>494.1</ele>
      </trkpt>
      <trkpt lat="44.43151" lon="2.50242">
        <ele>499.5</ele>
      </trkpt>
      <trkpt lat="44.43159" lon="2.50131">
        <ele>512.9</ele>
      </trkpt>
      <trkpt lat="44.43184" lon="2.50053">
        <ele>518.5</ele>
      </trkpt>
      <trkpt lat="44.4323" lon="2.49984">
        <ele>521</ele>
      </trkpt>
      <trkpt lat="44.43244" lon="2.49919">
        <ele>527.9</ele>
      </trkpt>
      <trkpt lat="44.43245" lon="2.49891">
        <ele>528</ele>
      </trkpt>
      <trkpt lat="44.43225" lon="2.4988">
        <ele>528.6</ele>
      </trkpt>
      <trkpt lat="44.43229" lon="2.49848">
        <ele>531.8</ele>
      </trkpt>
      <trkpt lat="44.43195" lon="2.49892">
        <ele>535.9</ele>
      </trkpt>
      <trkpt lat="44.43144" lon="2.49907">
        <ele>544.1</ele>
        <time>2022-07-17T08:09:37.000Z</time>
      </trkpt>
      <trkpt lat="44.43109" lon="2.49969">
        <ele>541.6</ele>
      </trkpt>
      <trkpt lat="44.43085" lon="2.49983">
        <ele>545</ele>
      </trkpt>
      <trkpt lat="44.4306" lon="2.49979">
        <ele>550.6</ele>
        <time>2022-07-17T08:10:29.000Z</time>
      </trkpt>
      <trkpt lat="44.43042" lon="2.49972">
        <ele>552</ele>
      </trkpt>
      <trkpt lat="44.43013" lon="2.50009">
        <ele>554</ele>
      </trkpt>
      <trkpt lat="44.42974" lon="2.50033">
        <ele>557.4</ele>
        <time>2022-07-17T08:11:14.000Z</time>
      </trkpt>
      <trkpt lat="44.42977" lon="2.50083">
        <ele>557.1</ele>
      </trkpt>
      <trkpt lat="44.42976" lon="2.50119">
        <ele>557.2</ele>
      </trkpt>
      <trkpt lat="44.42948" lon="2.50126">
        <ele>563.3</ele>
        <time>2022-07-17T08:11:59.000Z</time>
      </trkpt>
      <trkpt lat="44.42901" lon="2.50089">
        <ele>569.3</ele>
      </trkpt>
      <trkpt lat="44.42853" lon="2.50068">
        <ele>572.5</ele>
        <time>2022-07-17T08:12:53.000Z</time>
      </trkpt>
      <trkpt lat="44.42818" lon="2.50103">
        <ele>578.5</ele>
      </trkpt>
      <trkpt lat="44.42788" lon="2.5017">
        <ele>581.1</ele>
        <time>2022-07-17T08:13:40.000Z</time>
      </trkpt>
      <trkpt lat="44.42728" lon="2.5027">
        <ele>583.8</ele>
        <time>2022-07-17T08:14:23.000Z</time>
      </trkpt>
      <trkpt lat="44.42635" lon="2.50361">
        <ele>583.7</ele>
        <time>2022-07-17T08:14:53.000Z</time>
      </trkpt>
      <trkpt lat="44.42559" lon="2.50409">
        <ele>577.3</ele>
      </trkpt>
      <trkpt lat="44.42533" lon="2.50427">
        <ele>576.3</ele>
      </trkpt>
      <trkpt lat="44.42527" lon="2.50444">
        <ele>576.6</ele>
        <time>2022-07-17T08:15:14.000Z</time>
      </trkpt>
      <trkpt lat="44.42507" lon="2.50493">
        <ele>573.9</ele>
      </trkpt>
      <trkpt lat="44.42455" lon="2.50501">
        <ele>570.7</ele>
      </trkpt>
      <trkpt lat="44.42411" lon="2.50531">
        <ele>572</ele>
        <time>2022-07-17T08:15:38.000Z</time>
      </trkpt>
      <trkpt lat="44.42312" lon="2.50631">
        <ele>573</ele>
        <time>2022-07-17T08:15:58.000Z</time>
      </trkpt>
      <trkpt lat="44.42228" lon="2.50747">
        <ele>574.3</ele>
        <time>2022-07-17T08:16:20.000Z</time>
      </trkpt>
      <trkpt lat="44.42117" lon="2.50845">
        <ele>575.5</ele>
        <time>2022-07-17T08:16:44.000Z</time>
      </trkpt>
      <trkpt lat="44.4204" lon="2.50905">
        <ele>580.4</ele>
      </trkpt>
      <trkpt lat="44.42033" lon="2.5087">
        <ele>581.9</ele>
        <time>2022-07-17T08:17:12.000Z</time>
      </trkpt>
      <trkpt lat="44.42007" lon="2.50729">
        <ele>582.1</ele>
        <time>2022-07-17T08:17:36.000Z</time>
      </trkpt>
      <trkpt lat="44.41991" lon="2.50583">
        <ele>584.2</ele>
        <time>2022-07-17T08:17:58.000Z</time>
      </trkpt>
      <trkpt lat="44.41956" lon="2.50459">
        <ele>587.1</ele>
        <time>2022-07-17T08:18:19.000Z</time>
      </trkpt>
      <trkpt lat="44.41929" lon="2.50331">
        <ele>589.3</ele>
        <time>2022-07-17T08:18:39.000Z</time>
      </trkpt>
      <trkpt lat="44.41916" lon="2.50163">
        <ele>588.5</ele>
        <time>2022-07-17T08:19:01.000Z</time>
      </trkpt>
      <trkpt lat="44.41911" lon="2.50025">
        <ele>590.2</ele>
        <time>2022-07-17T08:19:22.000Z</time>
      </trkpt>
      <trkpt lat="44.41935" lon="2.49856">
        <ele>597.2</ele>
        <time>2022-07-17T08:19:55.000Z</time>
      </trkpt>
      <trkpt lat="44.41992" lon="2.49732">
        <ele>601.3</ele>
        <time>2022-07-17T08:20:22.000Z</time>
      </trkpt>
      <trkpt lat="44.42" lon="2.49572">
        <ele>599.9</ele>
        <time>2022-07-17T08:20:42.000Z</time>
      </trkpt>
      <trkpt lat="44.42" lon="2.49499">
        <ele>600</ele>
      </trkpt>
      <trkpt lat="44.41951" lon="2.49431">
        <ele>597.9</ele>
        <time>2022-07-17T08:21:03.000Z</time>
      </trkpt>
      <trkpt lat="44.41912" lon="2.4935">
        <ele>582.2</ele>
      </trkpt>
      <trkpt lat="44.4187" lon="2.49305">
        <ele>586.5</ele>
        <time>2022-07-17T08:21:13.000Z</time>
      </trkpt>
      <trkpt lat="44.41839" lon="2.49256">
        <ele>571.6</ele>
      </trkpt>
      <trkpt lat="44.41816" lon="2.49153">
        <ele>576.9</ele>
        <time>2022-07-17T08:21:23.000Z</time>
      </trkpt>
      <trkpt lat="44.41813" lon="2.49074">
        <ele>567.9</ele>
      </trkpt>
      <trkpt lat="44.41763" lon="2.49022">
        <ele>571</ele>
        <time>2022-07-17T08:21:35.000Z</time>
      </trkpt>
      <trkpt lat="44.41721" lon="2.48982">
        <ele>571.6</ele>
      </trkpt>
      <trkpt lat="44.41689" lon="2.48898">
        <ele>573.2</ele>
        <time>2022-07-17T08:21:55.000Z</time>
      </trkpt>
      <trkpt lat="44.41677" lon="2.48722">
        <ele>577.1</ele>
        <time>2022-07-17T08:22:26.000Z</time>
      </trkpt>
      <trkpt lat="44.41666" lon="2.48583">
        <ele>578.7</ele>
        <time>2022-07-17T08:23:00.000Z</time>
      </trkpt>
      <trkpt lat="44.41669" lon="2.48421">
        <ele>577.4</ele>
        <time>2022-07-17T08:23:35.000Z</time>
      </trkpt>
      <trkpt lat="44.41726" lon="2.48271">
        <ele>574.3</ele>
        <time>2022-07-17T08:24:10.000Z</time>
      </trkpt>
      <trkpt lat="44.41791" lon="2.48151">
        <ele>572.8</ele>
        <time>2022-07-17T08:24:31.000Z</time>
      </trkpt>
      <trkpt lat="44.41818" lon="2.48008">
        <ele>570.4</ele>
        <time>2022-07-17T08:24:51.000Z</time>
      </trkpt>
      <trkpt lat="44.41859" lon="2.47922">
        <ele>566.3</ele>
      </trkpt>
      <trkpt lat="44.4181" lon="2.47887">
        <ele>567.4</ele>
        <time>2022-07-17T08:25:15.000Z</time>
      </trkpt>
      <trkpt lat="44.41712" lon="2.47847">
        <ele>567.5</ele>
        <time>2022-07-17T08:25:35.000Z</time>
      </trkpt>
      <trkpt lat="44.41663" lon="2.47844">
        <ele>571.4</ele>
      </trkpt>
      <trkpt lat="44.41688" lon="2.47782">
        <ele>568</ele>
        <time>2022-07-17T08:25:57.000Z</time>
      </trkpt>
      <trkpt lat="44.41781" lon="2.47632">
        <ele>564.6</ele>
        <time>2022-07-17T08:26:19.000Z</time>
      </trkpt>
      <trkpt lat="44.41868" lon="2.47495">
        <ele>558.7</ele>
        <time>2022-07-17T08:26:35.000Z</time>
      </trkpt>
      <trkpt lat="44.41963" lon="2.47335">
        <ele>558.6</ele>
        <time>2022-07-17T08:26:57.000Z</time>
      </trkpt>
      <trkpt lat="44.42053" lon="2.47218">
        <ele>562.1</ele>
        <time>2022-07-17T08:27:17.000Z</time>
      </trkpt>
      <trkpt lat="44.4216" lon="2.4714">
        <ele>563.5</ele>
        <time>2022-07-17T08:27:37.000Z</time>
      </trkpt>
      <trkpt lat="44.42273" lon="2.47096">
        <ele>563.8</ele>
        <time>2022-07-17T08:27:59.000Z</time>
      </trkpt>
      <trkpt lat="44.42326" lon="2.47078">
        <ele>567.8</ele>
      </trkpt>
      <trkpt lat="44.42368" lon="2.47104">
        <ele>565.9</ele>
        <time>2022-07-17T08:28:23.000Z</time>
      </trkpt>
      <trkpt lat="44.42452" lon="2.47037">
        <ele>568</ele>
        <time>2022-07-17T08:28:49.000Z</time>
      </trkpt>
      <trkpt lat="44.42549" lon="2.47129">
        <ele>560.4</ele>
        <time>2022-07-17T08:29:24.000Z</time>
      </trkpt>
      <trkpt lat="44.42675" lon="2.47077">
        <ele>552.4</ele>
        <time>2022-07-17T08:29:44.000Z</time>
      </trkpt>
      <trkpt lat="44.42779" lon="2.4711">
        <ele>548.2</ele>
        <time>2022-07-17T08:30:09.000Z</time>
      </trkpt>
      <trkpt lat="44.42821" lon="2.46963">
        <ele>552.2</ele>
        <time>2022-07-17T08:30:43.000Z</time>
      </trkpt>
      <trkpt lat="44.42832" lon="2.46809">
        <ele>556.7</ele>
        <time>2022-07-17T08:31:13.000Z</time>
      </trkpt>
      <trkpt lat="44.42796" lon="2.46671">
        <ele>561.6</ele>
        <time>2022-07-17T08:31:48.000Z</time>
      </trkpt>
      <trkpt lat="44.42782" lon="2.46499">
        <ele>556.6</ele>
        <time>2022-07-17T08:32:10.000Z</time>
      </trkpt>
      <trkpt lat="44.42808" lon="2.46362">
        <ele>551.4</ele>
        <time>2022-07-17T08:32:20.000Z</time>
      </trkpt>
      <trkpt lat="44.42843" lon="2.46176">
        <ele>541.7</ele>
        <time>2022-07-17T08:32:31.000Z</time>
      </trkpt>
      <trkpt lat="44.42863" lon="2.45983">
        <ele>531.6</ele>
        <time>2022-07-17T08:32:41.000Z</time>
      </trkpt>
      <trkpt lat="44.42888" lon="2.45806">
        <ele>522.7</ele>
        <time>2022-07-17T08:32:51.000Z</time>
      </trkpt>
      <trkpt lat="44.42958" lon="2.45621">
        <ele>511.4</ele>
        <time>2022-07-17T08:33:02.000Z</time>
      </trkpt>
      <trkpt lat="44.43003" lon="2.45503">
        <ele>505.2</ele>
        <time>2022-07-17T08:33:24.000Z</time>
      </trkpt>
      <trkpt lat="44.43019" lon="2.45372">
        <ele>512.5</ele>
        <time>2022-07-17T08:34:05.000Z</time>
      </trkpt>
      <trkpt lat="44.43049" lon="2.45226">
        <ele>523.5</ele>
        <time>2022-07-17T08:34:54.000Z</time>
      </trkpt>
      <trkpt lat="44.43049" lon="2.4518">
        <ele>524.3</ele>
      </trkpt>
      <trkpt lat="44.43047" lon="2.45122">
        <ele>526.1</ele>
        <time>2022-07-17T08:35:41.000Z</time>
      </trkpt>
      <trkpt lat="44.43031" lon="2.45093">
        <ele>528.3</ele>
      </trkpt>
      <trkpt lat="44.43007" lon="2.45099">
        <ele>531.9</ele>
      </trkpt>
      <trkpt lat="44.42998" lon="2.45127">
        <ele>532.2</ele>
      </trkpt>
      <trkpt lat="44.42971" lon="2.45183">
        <ele>538.7</ele>
      </trkpt>
      <trkpt lat="44.429" lon="2.45278">
        <ele>555.7</ele>
      </trkpt>
      <trkpt lat="44.42864" lon="2.45374">
        <ele>560.9</ele>
        <time>2022-07-17T08:36:29.000Z</time>
      </trkpt>
      <trkpt lat="44.42821" lon="2.45508">
        <ele>570.2</ele>
        <time>2022-07-17T08:36:50.000Z</time>
      </trkpt>
      <trkpt lat="44.42779" lon="2.45661">
        <ele>579.9</ele>
      </trkpt>
      <trkpt lat="44.42752" lon="2.45713">
        <ele>584.4</ele>
      </trkpt>
      <trkpt lat="44.4275" lon="2.45676">
        <ele>586.4</ele>
      </trkpt>
      <trkpt lat="44.42744" lon="2.45623">
        <ele>590.3</ele>
      </trkpt>
      <trkpt lat="44.4274" lon="2.4561">
        <ele>591.1</ele>
      </trkpt>
      <trkpt lat="44.42723" lon="2.45632">
        <ele>592.2</ele>
      </trkpt>
      <trkpt lat="44.42721" lon="2.45584">
        <ele>592.9</ele>
      </trkpt>
      <trkpt lat="44.42748" lon="2.45403">
        <ele>597.4</ele>
      </trkpt>
      <trkpt lat="44.42785" lon="2.45163">
        <ele>600.9</ele>
      </trkpt>
      <trkpt lat="44.42775" lon="2.45003">
        <ele>603.9</ele>
      </trkpt>
      <trkpt lat="44.42801" lon="2.44799">
        <ele>606.2</ele>
      </trkpt>
      <trkpt lat="44.42769" lon="2.44468">
        <ele>608.6</ele>
      </trkpt>
      <trkpt lat="44.42753" lon="2.4434">
        <ele>604.5</ele>
      </trkpt>
      <trkpt lat="44.42779" lon="2.44207">
        <ele>606.9</ele>
      </trkpt>
      <trkpt lat="44.42825" lon="2.4418">
        <ele>604.4</ele>
      </trkpt>
      <trkpt lat="44.42975" lon="2.44179">
        <ele>601</ele>
      </trkpt>
      <trkpt lat="44.43013" lon="2.44177">
        <ele>596</ele>
      </trkpt>
      <trkpt lat="44.43154" lon="2.44034">
        <ele>580.1</ele>
      </trkpt>
      <trkpt lat="44.43229" lon="2.43957">
        <ele>567.4</ele>
      </trkpt>
      <trkpt lat="44.43306" lon="2.43874">
        <ele>558.2</ele>
      </trkpt>
      <trkpt lat="44.4336" lon="2.43886">
        <ele>550.4</ele>
      </trkpt>
      <trkpt lat="44.43403" lon="2.43946">
        <ele>540.7</ele>
      </trkpt>
      <trkpt lat="44.43421" lon="2.43934">
        <ele>541</ele>
      </trkpt>
      <trkpt lat="44.43515" lon="2.43765">
        <ele>535</ele>
      </trkpt>
      <trkpt lat="44.4359" lon="2.43598">
        <ele>516.2</ele>
      </trkpt>
      <trkpt lat="44.43637" lon="2.43554">
        <ele>513.1</ele>
      </trkpt>
      <trkpt lat="44.43678" lon="2.43578">
        <ele>510.3</ele>
      </trkpt>
      <trkpt lat="44.43822" lon="2.43495">
        <ele>503.6</ele>
      </trkpt>
      <trkpt lat="44.43894" lon="2.43473">
        <ele>500.8</ele>
      </trkpt>
      <trkpt lat="44.43909" lon="2.43454">
        <ele>501.6</ele>
      </trkpt>
      <trkpt lat="44.43993" lon="2.43451">
        <ele>500.9</ele>
      </trkpt>
      <trkpt lat="44.44113" lon="2.43386">
        <ele>502.8</ele>
      </trkpt>
      <trkpt lat="44.44201" lon="2.43369">
        <ele>500.5</ele>
      </trkpt>
      <trkpt lat="44.4433" lon="2.43394">
        <ele>492.1</ele>
      </trkpt>
      <trkpt lat="44.44419" lon="2.43428">
        <ele>486.8</ele>
      </trkpt>
      <trkpt lat="44.44461" lon="2.43481">
        <ele>480.4</ele>
      </trkpt>
      <trkpt lat="44.44471" lon="2.43511">
        <ele>478.6</ele>
      </trkpt>
      <trkpt lat="44.44436" lon="2.43596">
        <ele>481.5</ele>
      </trkpt>
      <trkpt lat="44.44453" lon="2.43633">
        <ele>479.8</ele>
      </trkpt>
      <trkpt lat="44.44485" lon="2.43642">
        <ele>478.7</ele>
      </trkpt>
      <trkpt lat="44.44498" lon="2.43614">
        <ele>478</ele>
      </trkpt>
      <trkpt lat="44.44634" lon="2.43597">
        <ele>482.1</ele>
      </trkpt>
      <trkpt lat="44.44689" lon="2.4359">
        <ele>485.9</ele>
      </trkpt>
      <trkpt lat="44.44803" lon="2.43573">
        <ele>489.9</ele>
      </trkpt>
      <trkpt lat="44.44899" lon="2.4358">
        <ele>493.2</ele>
      </trkpt>
      <trkpt lat="44.44919" lon="2.43591">
        <ele>493</ele>
      </trkpt>
      <trkpt lat="44.44904" lon="2.43664">
        <ele>491.1</ele>
      </trkpt>
      <trkpt lat="44.449" lon="2.43746">
        <ele>492.8</ele>
      </trkpt>
      <trkpt lat="44.44919" lon="2.43828">
        <ele>491</ele>
      </trkpt>
      <trkpt lat="44.44961" lon="2.43904">
        <ele>485.6</ele>
      </trkpt>
      <trkpt lat="44.44893" lon="2.43974">
        <ele>486.8</ele>
      </trkpt>
      <trkpt lat="44.44803" lon="2.44049">
        <ele>485.9</ele>
      </trkpt>
      <trkpt lat="44.44689" lon="2.44112">
        <ele>484.9</ele>
      </trkpt>
    </trkseg>
  </trk>
</gpx>